Time;durP1;ratioP1;P1;durP2;ratioP2;P2;SDS_P1;SDS_P2;PMS_P1;PMS_P2;Temp;Humidity;BMP_temperature;BMP_pressure;BME280_temperature;BME280_humidity;BME280_pressure;Samples;Min_cycle;Max_cycle;Signal;HPM_P1;HPM_P2
2024/01/24 00:00:08;;;;;;;;;;;;;;;14.56;87.53;102525.63;10289459;28;96792;-79
2024/01/24 00:05:11;;;;;;;;;;;;;;;14.54;87.59;102524.78;10289735;28;96606;-79
2024/01/24 00:10:14;;;;;;;;;;;;;;;14.54;86.91;102526.56;10289719;28;97508;-79
2024/01/24 00:15:19;;;;;;;;;;;;;;;14.55;86.82;102529.19;10288902;28;97400;-79
2024/01/24 00:20:22;;;;;;;;;;;;;;;14.52;87.27;102520.44;10289275;28;96676;-78
2024/01/24 00:25:26;;;;;;;;;;;;;;;14.44;87.43;102520.56;10289208;28;96842;-78
2024/01/24 00:30:32;;;;;;;;;;;;;;;14.45;87.45;102527.59;10289535;28;97376;-79
2024/01/24 00:35:35;;;;;;;;;;;;;;;14.47;87.56;102524.94;10288723;28;96729;-78
2024/01/24 00:40:38;;;;;;;;;;;;;;;14.43;87.47;102528.53;10288982;28;96878;-78
2024/01/24 00:45:43;;;;;;;;;;;;;;;14.40;87.63;102510.91;10287173;28;96910;-79
2024/01/24 00:50:46;;;;;;;;;;;;;;;14.44;87.83;102519.69;10288412;28;97310;-78
2024/01/24 00:55:49;;;;;;;;;;;;;;;14.40;87.46;102528.63;10288204;28;97208;-78
2024/01/24 01:00:53;;;;;;;;;;;;;;;14.40;87.66;102512.72;10292032;28;97596;-79
2024/01/24 01:05:57;;;;;;;;;;;;;;;14.39;87.43;102509.19;10295202;28;97282;-79
2024/01/24 01:11:00;;;;;;;;;;;;;;;14.35;88.25;102515.44;10294880;28;96647;-79
2024/01/24 01:16:05;;;;;;;;;;;;;;;14.36;87.65;102527.78;10295058;28;97037;-78
2024/01/24 01:21:08;;;;;;;;;;;;;;;14.37;87.86;102520.69;10295736;28;96619;-78
2024/01/24 01:26:11;;;;;;;;;;;;;;;14.37;87.87;102526.00;10294441;28;96650;-79
2024/01/24 01:31:15;;;;;;;;;;;;;;;14.42;87.25;102521.50;10294693;28;98006;-79
2024/01/24 01:36:18;;;;;;;;;;;;;;;14.39;87.17;102521.56;10292984;28;97205;-79
2024/01/24 01:41:25;;;;;;;;;;;;;;;14.33;87.16;102509.28;10294000;28;96711;-79
2024/01/24 01:46:31;;;;;;;;;;;;;;;14.34;87.18;102504.88;10293063;28;96673;-79
2024/01/24 01:51:35;;;;;;;;;;;;;;;14.31;87.67;102508.47;10294091;28;96784;-79
2024/01/24 01:56:38;;;;;;;;;;;;;;;14.28;87.53;102507.66;10293662;28;97355;-79
2024/01/24 02:01:43;;;;;;;;;;;;;;;14.27;87.43;102512.06;10292804;28;97276;-79
2024/01/24 02:06:47;;;;;;;;;;;;;;;14.31;86.89;102513.78;10293789;28;96986;-78
2024/01/24 02:11:50;;;;;;;;;;;;;;;14.24;87.15;102511.25;10293006;28;96617;-78
2024/01/24 02:16:54;;;;;;;;;;;;;;;14.24;87.23;102505.97;10292299;28;97196;-79
2024/01/24 02:22:00;;;;;;;;;;;;;;;14.18;87.08;102506.94;10292660;28;97345;-79
2024/01/24 02:27:05;;;;;;;;;;;;;;;14.21;87.20;102511.31;10251112;28;97660;-79
2024/01/24 02:32:11;;;;;;;;;;;;;;;14.19;86.81;102515.78;10292364;28;96758;-79
2024/01/24 02:37:15;;;;;;;;;;;;;;;14.22;86.54;102511.28;10291601;28;96757;-79
2024/01/24 02:42:22;;;;;;;;;;;;;;;14.21;86.57;102513.97;10292596;28;97534;-79
2024/01/24 02:47:26;;;;;;;;;;;;;;;14.16;87.11;102514.03;10291328;28;97162;-79
2024/01/24 02:52:30;;;;;;;;;;;;;;;14.12;86.89;102517.66;10291866;28;97491;-79
2024/01/24 02:57:37;;;;;;;;;;;;;;;14.14;86.85;102509.69;10292007;28;97512;-78
2024/01/24 03:02:41;;;;;;;;;;;;;;;14.12;86.75;102498.25;10292101;28;96806;-79
2024/01/24 03:07:45;;;;;;;;;;;;;;;14.12;87.06;102501.78;10291240;28;96613;-78
2024/01/24 03:12:51;;;;;;;;;;;;;;;14.10;86.95;102508.00;10290785;28;96776;-79
2024/01/24 03:17:54;;;;;;;;;;;;;;;14.09;86.65;102508.91;10290293;28;96747;-79
2024/01/24 03:22:57;;;;;;;;;;;;;;;14.09;86.75;102501.81;10290275;28;97125;-79
2024/01/24 03:28:01;;;;;;;;;;;;;;;14.05;86.36;102502.78;10290512;28;96765;-79
2024/01/24 03:33:05;;;;;;;;;;;;;;;14.06;86.41;102493.94;10315224;28;97047;-78
2024/01/24 03:38:09;;;;;;;;;;;;;;;14.03;86.33;102498.41;10325760;28;97269;-78
2024/01/24 03:43:14;;;;;;;;;;;;;;;14.05;86.04;102486.03;10290091;28;97307;-78
2024/01/24 03:48:17;;;;;;;;;;;;;;;13.99;86.45;102500.19;10289819;28;96915;-78
2024/01/24 03:53:20;;;;;;;;;;;;;;;14.01;86.23;102497.53;10290825;28;97197;-78
2024/01/24 03:58:27;;;;;;;;;;;;;;;13.98;86.16;102477.28;10289499;28;96649;-78
2024/01/24 04:03:32;;;;;;;;;;;;;;;13.95;86.40;102481.78;10289423;28;96693;-79
2024/01/24 04:08:36;;;;;;;;;;;;;;;13.93;86.26;102481.81;10289081;28;97405;-79
2024/01/24 04:13:42;;;;;;;;;;;;;;;13.89;86.23;102474.81;10289286;28;96796;-78
2024/01/24 04:18:45;;;;;;;;;;;;;;;13.90;86.18;102473.03;10288538;28;96799;-78
2024/01/24 04:23:49;;;;;;;;;;;;;;;13.90;86.24;102473.03;10311052;28;96703;-79
2024/01/24 04:28:55;;;;;;;;;;;;;;;13.85;85.97;102475.75;10330053;28;97329;-79
2024/01/24 04:34:00;;;;;;;;;;;;;;;13.88;86.09;102475.72;10329945;28;97186;-79
2024/01/24 04:39:03;;;;;;;;;;;;;;;13.86;85.77;102469.56;10332172;28;97467;-79
2024/01/24 04:44:08;;;;;;;;;;;;;;;13.88;85.82;102464.25;10337758;28;97697;-79
2024/01/24 04:49:11;;;;;;;;;;;;;;;13.86;85.60;102469.56;10336880;28;97106;-78
2024/01/24 04:54:34;;;;;;;;;;;;;;;13.86;86.11;102460.75;10336742;28;96581;-79
2024/01/24 04:59:41;;;;;;;;;;;;;;;13.83;86.22;102468.75;10334713;28;97062;-78
2024/01/24 05:04:57;;;;;;;;;;;;;;;13.84;85.73;102458.13;10336383;28;97338;-78
2024/01/24 05:10:03;;;;;;;;;;;;;;;13.84;86.30;102475.78;10336303;28;97656;-78
2024/01/24 05:15:10;;;;;;;;;;;;;;;13.85;85.86;102474.91;10330611;28;97278;-79
2024/01/24 05:20:15;;;;;;;;;;;;;;;13.83;86.21;102461.66;10294319;28;96691;-78
2024/01/24 05:25:19;;;;;;;;;;;;;;;13.87;86.01;102459.84;10294254;28;97531;-79
2024/01/24 05:30:26;;;;;;;;;;;;;;;13.82;86.16;102464.34;10305120;28;96641;-79
2024/01/24 05:35:38;;;;;;;;;;;;;;;13.84;86.27;102458.13;10336310;28;97359;-78
2024/01/24 05:40:43;;;;;;;;;;;;;;;13.85;86.19;102448.44;10308542;28;96868;-78
2024/01/24 05:45:51;;;;;;;;;;;;;;;13.84;86.27;102447.56;10292408;28;96664;-78
2024/01/24 05:50:54;;;;;;;;;;;;;;;13.84;86.05;102449.31;10332075;28;97586;-79
2024/01/24 05:55:57;;;;;;;;;;;;;;;13.82;86.11;102445.81;10334617;28;97470;-79
2024/01/24 06:01:01;;;;;;;;;;;;;;;13.82;86.20;102438.75;10334372;28;96695;-78
2024/01/24 06:06:05;;;;;;;;;;;;;;;13.83;86.47;102442.28;10334191;28;97045;-78
2024/01/24 06:11:09;;;;;;;;;;;;;;;13.84;86.29;102457.25;10323223;28;96714;-79
2024/01/24 06:16:14;;;;;;;;;;;;;;;13.81;86.14;102444.97;10310453;22;97050;-78
2024/01/24 06:21:17;;;;;;;;;;;;;;;13.83;86.16;102434.34;10334609;28;97320;-79
2024/01/24 06:26:20;;;;;;;;;;;;;;;13.84;86.03;102444.91;10334624;28;96708;-79
2024/01/24 06:31:25;;;;;;;;;;;;;;;13.84;85.80;102447.56;10334086;28;96728;-78
2024/01/24 06:36:28;;;;;;;;;;;;;;;13.83;86.31;102455.53;10333444;28;97306;-78
2024/01/24 06:41:32;;;;;;;;;;;;;;;13.80;86.51;102445.84;10332940;28;96790;-78
2024/01/24 06:46:43;;;;;;;;;;;;;;;13.80;86.58;102459.09;10332591;28;96861;-79
2024/01/24 06:51:47;;;;;;;;;;;;;;;13.82;86.49;102454.66;10333145;28;96677;-79
2024/01/24 06:56:51;;;;;;;;;;;;;;;13.76;86.55;102457.41;10332711;28;96755;-78
2024/01/24 07:02:00;;;;;;;;;;;;;;;13.78;86.50;102462.69;10332291;28;97686;-78
2024/01/24 07:07:04;;;;;;;;;;;;;;;13.79;86.31;102456.47;10333087;28;96800;-78
2024/01/24 07:12:07;;;;;;;;;;;;;;;13.75;86.66;102463.59;10332774;28;97328;-78
2024/01/24 07:17:12;;;;;;;;;;;;;;;13.77;86.30;102476.78;10332256;28;96718;-79
2024/01/24 07:22:15;;;;;;;;;;;;;;;13.78;86.40;102474.09;10331678;28;97252;-79
2024/01/24 07:27:19;;;;;;;;;;;;;;;13.79;86.38;102477.63;10332232;28;96852;-79
2024/01/24 07:32:24;;;;;;;;;;;;;;;13.78;86.59;102484.69;10331409;28;96668;-79
2024/01/24 07:37:27;;;;;;;;;;;;;;;13.77;86.48;102480.31;10331195;28;96628;-79
2024/01/24 07:42:30;;;;;;;;;;;;;;;13.74;86.51;102477.72;10290393;28;96730;-79
2024/01/24 07:47:36;;;;;;;;;;;;;;;13.80;86.16;102495.25;10311537;28;97122;-78
2024/01/24 07:52:42;;;;;;;;;;;;;;;13.80;86.31;102495.25;10331565;28;96716;-78
2024/01/24 07:57:46;;;;;;;;;;;;;;;13.82;86.09;102489.03;10330920;28;96684;-79
2024/01/24 08:02:53;;;;;;;;;;;;;;;13.79;86.18;102494.41;10332439;28;96851;-78
2024/01/24 08:07:58;;;;;;;;;;;;;;;13.80;86.29;102505.84;10331829;28;96927;-79
2024/01/24 08:13:03;;;;;;;;;;;;;;;13.83;85.94;102504.00;10330892;28;97581;-79
2024/01/24 08:18:11;;;;;;;;;;;;;;;13.82;86.14;102507.56;10328026;28;98622;-78
2024/01/24 08:23:14;;;;;;;;;;;;;;;13.82;85.80;102517.28;10330241;28;97123;-79
2024/01/24 08:28:17;;;;;;;;;;;;;;;13.82;86.36;102509.34;10330334;28;96946;-78
2024/01/24 08:33:22;;;;;;;;;;;;;;;13.86;86.03;102527.81;10329950;28;96812;-79
2024/01/24 08:38:27;;;;;;;;;;;;;;;13.82;86.03;102523.44;10330198;28;97454;-79
2024/01/24 08:43:31;;;;;;;;;;;;;;;13.88;85.59;102528.66;10330314;28;96709;-78
2024/01/24 08:48:37;;;;;;;;;;;;;;;13.92;85.86;102537.41;10329276;28;96798;-79
2024/01/24 08:53:42;;;;;;;;;;;;;;;13.90;85.88;102533.91;10330032;28;96747;-79
2024/01/24 08:58:47;;;;;;;;;;;;;;;13.93;85.88;102539.16;10330498;28;96959;-79
2024/01/24 09:03:53;;;;;;;;;;;;;;;13.95;85.12;102532.06;10329352;28;96608;-78
2024/01/24 09:08:56;;;;;;;;;;;;;;;13.99;85.45;102539.91;10329196;28;96692;-79
2024/01/24 09:13:59;;;;;;;;;;;;;;;14.00;85.39;102541.69;10328165;28;96663;-78
2024/01/24 09:19:04;;;;;;;;;;;;;;;14.05;85.32;102549.56;10328208;28;97340;-78
2024/01/24 09:24:08;;;;;;;;;;;;;;;14.05;85.09;102538.97;10334487;28;96723;-79
2024/01/24 09:29:12;;;;;;;;;;;;;;;14.08;84.88;102549.50;10336138;28;97118;-79
2024/01/24 09:34:17;;;;;;;;;;;;;;;14.11;84.87;102554.72;10335586;28;97381;-79
2024/01/24 09:39:21;;;;;;;;;;;;;;;14.10;84.89;102553.00;10324314;28;97074;-79
2024/01/24 09:44:26;;;;;;;;;;;;;;;14.13;84.48;102560.88;10337757;28;96745;-79
2024/01/24 09:49:32;;;;;;;;;;;;;;;14.21;84.26;102565.13;10377280;28;96665;-78
2024/01/24 09:54:37;;;;;;;;;;;;;;;14.19;84.19;102568.72;10376006;28;97165;-78
2024/01/24 09:59:42;;;;;;;;;;;;;;;14.25;84.02;102568.59;10375960;28;96617;-79
2024/01/24 10:04:49;;;;;;;;;;;;;;;14.36;83.24;102556.06;10344130;28;96803;-78
2024/01/24 10:10:02;;;;;;;;;;;;;;;14.47;82.95;102562.88;10334446;28;97068;-79
2024/01/24 10:15:07;;;;;;;;;;;;;;;14.46;83.16;102550.56;10333689;28;96910;-78
2024/01/24 10:20:14;;;;;;;;;;;;;;;14.51;83.03;102556.63;10334999;28;97549;-79
2024/01/24 10:25:18;;;;;;;;;;;;;;;14.64;82.37;102559.94;10333692;28;96636;-79
2024/01/24 10:30:23;;;;;;;;;;;;;;;14.72;81.68;102544.75;10334235;28;97040;-79
2024/01/24 10:35:30;;;;;;;;;;;;;;;14.78;81.33;102558.72;10326401;28;96716;-78
2024/01/24 10:40:34;;;;;;;;;;;;;;;14.79;81.39;102564.91;10349683;28;97105;-78
2024/01/24 10:45:41;;;;;;;;;;;;;;;14.83;80.81;102564.81;10332815;28;96679;-78
2024/01/24 10:50:47;;;;;;;;;;;;;;;14.96;80.26;102561.91;10332974;28;96821;-78
2024/01/24 10:55:51;;;;;;;;;;;;;;;14.93;80.22;102572.56;10362570;28;96683;-79
2024/01/24 11:00:54;;;;;;;;;;;;;;;15.04;80.27;102573.25;10357488;28;97394;-79
2024/01/24 11:06:01;;;;;;;;;;;;;;;14.95;80.44;102574.31;10333060;28;97309;-78
2024/01/24 11:11:08;;;;;;;;;;;;;;;15.10;79.86;102555.41;10349097;28;96801;-78
2024/01/24 11:16:30;;;;;;;;;;;;;;;15.05;79.79;102543.16;10373152;28;97267;-78
2024/01/24 11:21:34;;;;;;;;;;;;;;;15.18;79.56;102564.06;10339358;28;98391;-79
2024/01/24 11:26:48;;;;;;;;;;;;;;;15.15;79.52;102556.19;10332406;28;96656;-78
2024/01/24 11:31:52;;;;;;;;;;;;;;;15.20;79.74;102546.34;10330926;28;96746;-78
2024/01/24 11:36:57;;;;;;;;;;;;;;;15.09;79.10;102540.44;10290161;28;97306;-78
2024/01/24 11:42:18;;;;;;;;;;;;;;;15.17;79.41;102534.94;10327355;28;96735;-78
2024/01/24 11:47:23;;;;;;;;;;;;;;;15.25;78.84;102517.09;10329832;28;96929;-78
2024/01/24 11:52:28;;;;;;;;;;;;;;;15.27;78.72;102525.88;10330922;28;96694;-78
2024/01/24 11:57:31;;;;;;;;;;;;;;;15.30;78.83;102515.22;10330415;28;96942;-79
2024/01/24 12:02:35;;;;;;;;;;;;;;;15.24;78.99;102494.97;10348868;28;97595;-79
2024/01/24 12:07:40;;;;;;;;;;;;;;;15.37;78.88;102500.91;10330540;28;96613;-78
2024/01/24 12:12:43;;;;;;;;;;;;;;;15.44;78.53;102499.88;10330992;28;97317;-79
2024/01/24 12:17:46;;;;;;;;;;;;;;;15.31;78.04;102479.81;10335404;28;96886;-79
2024/01/24 12:22:51;;;;;;;;;;;;;;;15.35;78.16;102462.94;10372344;28;96805;-79
2024/01/24 12:27:56;;;;;;;;;;;;;;;15.50;77.75;102460.78;10371736;28;97024;-78
2024/01/24 12:33:00;;;;;;;;;;;;;;;15.67;77.34;102457.69;10371484;28;97288;-79
2024/01/24 12:38:05;;;;;;;;;;;;;;;15.50;77.06;102454.59;10337031;28;97054;-79
2024/01/24 12:43:10;;;;;;;;;;;;;;;15.32;77.12;102440.00;10329622;28;97504;-78
2024/01/24 12:48:14;;;;;;;;;;;;;;;15.55;77.29;102440.31;10329672;28;96655;-78
2024/01/24 12:53:21;;;;;;;;;;;;;;;15.48;77.59;102425.44;10329945;28;96709;-78
2024/01/24 12:58:26;;;;;;;;;;;;;;;15.57;76.74;102411.06;10333890;28;96656;-79
2024/01/24 13:03:31;;;;;;;;;;;;;;;15.53;76.60;102412.03;10336330;28;96671;-79
2024/01/24 13:08:38;;;;;;;;;;;;;;;15.52;76.77;102403.22;10336959;28;96677;-79
2024/01/24 13:13:43;;;;;;;;;;;;;;;15.58;76.04;102395.09;10336928;28;97313;-79
2024/01/24 13:18:47;;;;;;;;;;;;;;;15.66;76.09;102403.75;10334902;28;96854;-78
2024/01/24 13:23:56;;;;;;;;;;;;;;;15.72;75.66;102400.03;10336023;28;97107;-78
2024/01/24 13:29:00;;;;;;;;;;;;;;;15.85;75.40;102405.00;10335045;28;96612;-79
2024/01/24 13:34:03;;;;;;;;;;;;;;;15.77;75.04;102391.03;10335521;28;96623;-78
2024/01/24 13:39:11;;;;;;;;;;;;;;;15.89;74.54;102388.06;10335125;28;97041;-78
2024/01/24 13:44:15;;;;;;;;;;;;;;;15.94;74.53;102387.94;10353204;28;96717;-79
2024/01/24 13:49:19;;;;;;;;;;;;;;;17.33;70.41;102351.72;10376567;28;96656;-79
2024/01/24 13:54:24;;;;;;;;;;;;;;;18.14;67.13;102354.97;10365376;28;97177;-79
2024/01/24 13:59:27;;;;;;;;;;;;;;;18.66;64.64;102353.00;10335535;28;96975;-79
2024/01/24 14:04:31;;;;;;;;;;;;;;;18.93;64.28;102355.44;10335420;28;96842;-79
2024/01/24 14:09:36;;;;;;;;;;;;;;;18.81;63.89;102337.25;10334182;28;96760;-79
2024/01/24 14:14:42;;;;;;;;;;;;;;;18.35;63.29;102333.78;10334125;28;97167;-79
2024/01/24 14:19:49;;;;;;;;;;;;;;;17.41;66.76;102317.72;10348155;28;96942;-79
2024/01/24 14:24:56;;;;;;;;;;;;;;;17.04;68.72;102311.00;10333848;28;96719;-79
2024/01/24 14:30:00;;;;;;;;;;;;;;;16.69;69.55;102315.72;10333923;28;97254;-78
2024/01/24 14:35:03;;;;;;;;;;;;;;;17.52;67.36;102310.25;10349853;28;97349;-79
2024/01/24 14:40:08;;;;;;;;;;;;;;;17.85;65.38;102303.69;10353050;28;97150;-79
2024/01/24 14:45:12;;;;;;;;;;;;;;;18.33;64.24;102296.50;10333149;28;97222;-79
2024/01/24 14:50:15;;;;;;;;;;;;;;;18.62;63.41;102298.91;10333489;28;97236;-79
2024/01/24 14:55:19;;;;;;;;;;;;;;;18.60;63.27;102291.91;10333481;28;97048;-79
2024/01/24 15:00:22;;;;;;;;;;;;;;;18.24;63.66;102304.88;10332395;28;96738;-79
2024/01/24 15:05:27;;;;;;;;;;;;;;;18.53;62.83;102298.41;10332595;28;97605;-79
2024/01/24 15:10:31;;;;;;;;;;;;;;;18.52;62.67;102292.22;10360000;28;97164;-79
2024/01/24 15:15:34;;;;;;;;;;;;;;;18.29;63.39;102313.53;10373072;28;97079;-79
2024/01/24 15:20:39;;;;;;;;;;;;;;;18.18;63.83;102311.28;10372637;28;97361;-79
2024/01/24 15:25:56;;;;;;;;;;;;;;;18.35;63.56;102291.97;10372755;28;96985;-79
2024/01/24 15:30:59;;;;;;;;;;;;;;;18.45;63.80;102309.38;10347318;28;97542;-79
2024/01/24 15:36:03;;;;;;;;;;;;;;;17.98;64.35;102292.53;10331642;28;97134;-79
2024/01/24 15:41:07;;;;;;;;;;;;;;;17.78;65.12;102283.53;10331866;28;96784;-79
2024/01/24 15:46:14;;;;;;;;;;;;;;;17.74;65.53;102303.22;10373249;28;97596;-79
2024/01/24 15:51:17;;;;;;;;;;;;;;;17.84;65.17;102286.84;10350387;28;97361;-78
2024/01/24 15:56:22;;;;;;;;;;;;;;;17.53;66.03;102286.25;10330892;28;96971;-78
2024/01/24 16:01:26;;;;;;;;;;;;;;;17.70;66.34;102294.50;10330361;28;96725;-78
2024/01/24 16:06:30;;;;;;;;;;;;;;;17.15;67.71;102289.34;10330671;28;96746;-79
2024/01/24 16:11:34;;;;;;;;;;;;;;;17.38;67.08;102293.88;10330258;28;96772;-79
2024/01/24 16:16:37;;;;;;;;;;;;;;;16.98;67.93;102294.38;10342203;28;97256;-79
2024/01/24 16:21:43;;;;;;;;;;;;;;;16.85;69.02;102293.03;10371773;28;96762;-79
2024/01/24 16:26:48;;;;;;;;;;;;;;;16.86;68.82;102292.13;10364117;28;96666;-79
2024/01/24 16:31:51;;;;;;;;;;;;;;;16.54;70.12;102294.94;10337652;28;96663;-79
2024/01/24 16:36:55;;;;;;;;;;;;;;;16.61;69.81;102285.84;10344046;28;96986;-78
2024/01/24 16:42:05;;;;;;;;;;;;;;;16.15;71.52;102294.34;10343479;28;96734;-78
2024/01/24 16:47:09;;;;;;;;;;;;;;;15.77;73.40;102294.59;10343177;28;97311;-78
2024/01/24 16:52:13;;;;;;;;;;;;;;;15.74;73.54;102297.34;10368003;28;96892;-78
2024/01/24 16:57:21;;;;;;;;;;;;;;;15.75;73.92;102294.63;10384485;28;97334;-78
2024/01/24 17:02:25;;;;;;;;;;;;;;;15.60;74.68;102294.22;10385102;28;96660;-78
2024/01/24 17:07:44;;;;;;;;;;;;;;;15.28;75.89;102294.22;10350865;28;96760;-78
2024/01/24 17:12:51;;;;;;;;;;;;;;;15.14;76.28;102302.50;10342890;28;96774;-78
2024/01/24 17:17:54;;;;;;;;;;;;;;;15.00;76.99;102295.81;10341695;28;97253;-78
2024/01/24 17:22:59;;;;;;;;;;;;;;;14.86;77.79;102289.97;10342491;28;98418;-78
2024/01/24 17:28:03;;;;;;;;;;;;;;;14.77;78.65;102286.66;10383919;28;97460;-78
2024/01/24 17:33:07;;;;;;;;;;;;;;;14.73;78.83;102300.03;10383630;28;96817;-78
2024/01/24 17:38:10;;;;;;;;;;;;;;;14.67;79.29;102292.22;10359861;28;96700;-78
2024/01/24 17:43:16;;;;;;;;;;;;;;;14.63;79.09;102301.13;10336640;28;96776;-78
2024/01/24 17:48:22;;;;;;;;;;;;;;;14.56;80.08;102305.72;10335465;28;97310;-78
2024/01/24 17:53:25;;;;;;;;;;;;;;;14.54;79.95;102306.66;10334996;28;96757;-78
2024/01/24 17:58:30;;;;;;;;;;;;;;;14.48;80.19;102302.38;10334801;28;97685;-78
2024/01/24 18:03:35;;;;;;;;;;;;;;;14.46;80.37;102321.84;10334334;28;97336;-78
2024/01/24 18:08:38;;;;;;;;;;;;;;;14.46;80.38;102316.56;10334420;28;97306;-78
2024/01/24 18:13:43;;;;;;;;;;;;;;;14.45;80.73;102334.22;10334190;28;97305;-78
2024/01/24 18:18:47;;;;;;;;;;;;;;;14.45;80.37;102338.66;10335406;28;96981;-78
2024/01/24 18:23:51;;;;;;;;;;;;;;;14.44;80.74;102339.56;10333947;28;97132;-78
2024/01/24 18:28:55;;;;;;;;;;;;;;;14.43;80.46;102335.19;10333732;28;97213;-78
2024/01/24 18:33:58;;;;;;;;;;;;;;;14.33;81.24;102342.44;10356447;28;97340;-78
2024/01/24 18:39:02;;;;;;;;;;;;;;;14.32;81.60;102346.00;10344887;28;96641;-78
2024/01/24 18:44:07;;;;;;;;;;;;;;;14.32;81.21;102366.31;10333641;28;96640;-78
2024/01/24 18:49:11;;;;;;;;;;;;;;;14.32;81.61;102358.38;10303860;22;96810;-78
2024/01/24 18:54:17;;;;;;;;;;;;;;;14.36;81.24;102346.81;10290709;28;97176;-78
2024/01/24 18:59:22;;;;;;;;;;;;;;;14.28;81.48;102352.25;10292150;28;96696;-78
2024/01/24 19:04:25;;;;;;;;;;;;;;;14.25;81.83;102339.09;10291426;28;97023;-78
2024/01/24 19:09:28;;;;;;;;;;;;;;;14.23;81.93;102353.28;10292685;28;96755;-78
2024/01/24 19:14:33;;;;;;;;;;;;;;;14.24;81.70;102358.56;10290835;28;96688;-78
2024/01/24 19:19:36;;;;;;;;;;;;;;;14.24;82.04;102357.66;10291228;28;97183;-78
2024/01/24 19:24:40;;;;;;;;;;;;;;;14.21;81.93;102355.09;10290491;28;96769;-78
2024/01/24 19:29:45;;;;;;;;;;;;;;;14.19;82.43;102355.13;10290532;28;97352;-78
2024/01/24 19:34:52;;;;;;;;;;;;;;;14.17;82.21;102366.63;10290725;28;97049;-78
2024/01/24 19:39:55;;;;;;;;;;;;;;;14.16;82.77;102365.75;10296854;28;97244;-78
2024/01/24 19:45:00;;;;;;;;;;;;;;;14.15;82.58;102363.16;10314036;28;97359;-78
2024/01/24 19:50:07;;;;;;;;;;;;;;;14.16;82.64;102376.34;10290369;28;97480;-78
2024/01/24 19:55:10;;;;;;;;;;;;;;;14.11;82.57;102372.03;10290340;28;96771;-78
2024/01/24 20:00:18;;;;;;;;;;;;;;;14.11;82.88;102372.03;10324924;28;97009;-78
2024/01/24 20:05:22;;;;;;;;;;;;;;;14.06;83.09;102384.50;10330859;28;97213;-78
2024/01/24 20:10:26;;;;;;;;;;;;;;;14.10;82.64;102367.66;10330821;28;96887;-78
2024/01/24 20:15:33;;;;;;;;;;;;;;;14.07;82.65;102387.16;10293231;28;97477;-78
2024/01/24 20:20:37;;;;;;;;;;;;;;;14.05;83.44;102388.94;10277600;28;97346;-78
2024/01/24 20:25:42;;;;;;;;;;;;;;;14.04;83.28;102391.63;10248606;28;96764;-78
2024/01/24 20:30:49;;;;;;;;;;;;;;;14.05;83.02;102386.31;10255520;28;96714;-78
2024/01/24 20:35:53;;;;;;;;;;;;;;;14.06;82.83;102388.03;10288485;28;96835;-78
2024/01/24 20:40:57;;;;;;;;;;;;;;;14.01;83.53;102389.88;10289071;28;96703;-77
2024/01/24 20:46:03;;;;;;;;;;;;;;;14.02;83.23;102402.22;10288450;28;97590;-78
2024/01/24 20:51:07;;;;;;;;;;;;;;;13.98;83.75;102408.47;10322360;28;96724;-79
2024/01/24 20:56:12;;;;;;;;;;;;;;;14.01;83.61;102413.69;10329117;28;96794;-78
2024/01/24 21:01:16;;;;;;;;;;;;;;;14.01;83.32;102416.34;10329799;28;97385;-78
2024/01/24 21:06:24;;;;;;;;;;;;;;;13.93;83.61;102409.44;10327298;28;99074;-78
2024/01/24 21:11:28;;;;;;;;;;;;;;;13.91;83.91;102403.31;10312158;28;97002;-78
2024/01/24 21:16:32;;;;;;;;;;;;;;;13.88;83.83;102398.97;10275338;28;96883;-78
2024/01/24 21:21:35;;;;;;;;;;;;;;;13.92;83.68;102407.72;10264068;28;96660;-78
2024/01/24 21:26:39;;;;;;;;;;;;;;;13.90;83.90;102407.72;10335983;28;97505;-78
2024/01/24 21:31:46;;;;;;;;;;;;;;;13.89;83.62;102407.75;10335785;28;96938;-78
2024/01/24 21:36:49;;;;;;;;;;;;;;;13.91;83.46;102405.97;10323972;28;97007;-78
2024/01/24 21:41:53;;;;;;;;;;;;;;;13.86;83.88;102405.19;10325965;28;96855;-78
2024/01/24 21:46:57;;;;;;;;;;;;;;;13.85;83.65;102404.28;10334741;28;97350;-78
2024/01/24 21:52:00;;;;;;;;;;;;;;;13.81;84.26;102409.69;10335080;28;97211;-78
2024/01/24 21:57:04;;;;;;;;;;;;;;;13.83;84.25;102397.31;10333518;28;96895;-78
2024/01/24 22:02:08;;;;;;;;;;;;;;;13.85;84.14;102396.34;10335089;28;96949;-78
2024/01/24 22:07:11;;;;;;;;;;;;;;;13.83;83.79;102406.09;10334780;28;97195;-78
2024/01/24 22:12:14;;;;;;;;;;;;;;;13.83;83.77;102405.25;10294485;28;97226;-78
2024/01/24 22:17:19;;;;;;;;;;;;;;;13.84;83.40;102397.28;10292854;28;97237;-78
2024/01/24 22:22:22;;;;;;;;;;;;;;;13.85;84.05;102399.00;10292846;28;97142;-78
2024/01/24 22:27:25;;;;;;;;;;;;;;;13.78;84.07;102402.66;10292184;28;97188;-78
2024/01/24 22:32:30;;;;;;;;;;;;;;;13.84;83.77;102396.38;10321752;28;96780;-78
2024/01/24 22:37:33;;;;;;;;;;;;;;;13.79;83.81;102395.59;10316078;28;96642;-78
2024/01/24 22:42:37;;;;;;;;;;;;;;;13.78;83.97;102391.22;10292178;28;96810;-78
2024/01/24 22:47:45;;;;;;;;;;;;;;;13.78;83.89;102402.66;10303843;28;97486;-78
2024/01/24 22:52:51;;;;;;;;;;;;;;;13.72;83.59;102386.91;10333209;28;96854;-78
2024/01/24 22:57:55;;;;;;;;;;;;;;;13.71;83.81;102398.38;10332816;28;97272;-78
2024/01/24 23:03:02;;;;;;;;;;;;;;;13.70;83.80;102388.72;10332512;28;96565;-78
2024/01/24 23:08:08;;;;;;;;;;;;;;;13.73;83.86;102393.09;10251169;28;96838;-78
2024/01/24 23:13:12;;;;;;;;;;;;;;;13.74;83.86;102393.06;10276875;28;96732;-78
2024/01/24 23:18:17;;;;;;;;;;;;;;;13.69;83.80;102400.22;10290924;28;96704;-78
2024/01/24 23:23:20;;;;;;;;;;;;;;;13.70;83.77;102391.34;10289391;28;96766;-78
2024/01/24 23:28:23;;;;;;;;;;;;;;;13.66;83.33;102379.97;10290695;28;97118;-78
2024/01/24 23:33:33;;;;;;;;;;;;;;;13.62;83.79;102386.19;10290786;28;96778;-78
2024/01/24 23:38:36;;;;;;;;;;;;;;;13.55;83.98;102389.84;10289037;28;97114;-78
2024/01/24 23:43:39;;;;;;;;;;;;;;;13.62;83.25;102372.13;10330583;28;96775;-78
2024/01/24 23:48:44;;;;;;;;;;;;;;;13.59;83.83;102388.03;10330820;28;96889;-78
2024/01/24 23:53:47;;;;;;;;;;;;;;;13.60;83.71;102385.38;10331026;28;96686;-78
2024/01/24 23:58:50;;;;;;;;;;;;;;;13.57;83.67;102379.28;10330138;28;97270;-78
